createdAt,value
2018-02-13T00:00:54.491Z,10.77
2018-02-13T00:01:58.690Z,12.75
2018-02-13T00:03:03.323Z,11.63
2018-02-13T00:04:08.596Z,21.15
2018-02-13T00:05:14.079Z,14.68
2018-02-13T00:06:18.299Z,20.05
2018-02-13T00:07:22.559Z,11.48
2018-02-13T00:08:26.732Z,10.77
2018-02-13T00:09:31.290Z,14.87
2018-02-13T00:10:36.162Z,11.65
2018-02-13T00:11:41.007Z,15.73
2018-02-13T00:12:45.296Z,11.02
2018-02-13T00:13:49.491Z,20.65
2018-02-13T00:14:54.455Z,13.23
2018-02-13T00:15:58.668Z,14.55
2018-02-13T00:17:03.416Z,16.73
2018-02-13T00:18:08.474Z,15.23
2018-02-13T00:19:13.602Z,16.27
2018-02-13T00:20:18.574Z,24.70
2018-02-13T00:21:22.770Z,14.50
2018-02-13T00:23:58.096Z,11.90
2018-02-13T00:25:04.547Z,12.48
2018-02-13T00:26:09.428Z,14.60
2018-02-13T00:27:14.119Z,12.68
2018-02-13T00:28:19.103Z,12.35
2018-02-13T00:29:23.350Z,17.05
2018-02-13T00:30:28.331Z,14.63
2018-02-13T00:31:33.334Z,11.68
2018-02-13T00:32:37.761Z,16.42
2018-02-13T00:33:42.009Z,17.12
2018-02-13T00:34:47.415Z,15.88
2018-02-13T00:35:51.584Z,18.85
2018-02-13T00:36:56.506Z,10.20
2018-02-13T00:38:01.841Z,19.98
2018-02-13T00:39:06.372Z,13.18
2018-02-13T00:40:11.602Z,22.65
2018-02-13T00:41:16.124Z,20.42
2018-02-13T00:42:21.071Z,13.62
2018-02-13T00:43:25.312Z,15.80
2018-02-13T00:44:29.509Z,13.25
2018-02-13T00:45:35.598Z,20.45
2018-02-13T00:46:39.854Z,14.52
2018-02-13T00:47:44.095Z,17.37
2018-02-13T00:48:48.305Z,15.13
2018-02-13T00:49:52.503Z,18.55
2018-02-13T00:50:56.733Z,19.45
2018-02-13T00:52:01.795Z,23.38
2018-02-13T00:53:06.971Z,16.83
2018-02-13T00:54:11.279Z,17.42
2018-02-13T00:55:15.511Z,16.80
2018-02-13T00:56:19.758Z,15.50
2018-02-13T00:57:23.927Z,16.85
2018-02-13T00:58:28.100Z,22.33
2018-02-13T00:59:33.338Z,15.07
2018-02-13T01:00:37.924Z,17.50
2018-02-13T01:01:42.564Z,16.98
2018-02-13T01:02:47.541Z,19.83
2018-02-13T01:03:51.727Z,13.20
2018-02-13T01:04:55.923Z,20.65
2018-02-13T01:06:00.887Z,21.12
2018-02-13T01:07:05.840Z,15.13
2018-02-13T01:08:10.361Z,20.60
2018-02-13T01:09:14.609Z,13.60
2018-02-13T01:10:19.564Z,15.90
2018-02-13T01:11:23.750Z,17.05
2018-02-13T01:12:28.734Z,16.65
2018-02-13T01:13:33.276Z,18.85
2018-02-13T01:14:38.236Z,18.83
2018-02-13T01:15:42.722Z,13.70
2018-02-13T01:16:46.924Z,17.73
2018-02-13T01:17:51.469Z,15.97
2018-02-13T01:18:56.462Z,22.08
2018-02-13T01:20:01.027Z,17.95
2018-02-13T01:21:06.417Z,22.23
2018-02-13T01:22:11.496Z,14.07
2018-02-13T01:23:15.791Z,19.60
2018-02-13T01:24:19.991Z,14.60
2018-02-13T01:25:24.175Z,19.70
2018-02-13T01:26:28.457Z,18.02
2018-02-13T01:27:33.315Z,19.95
2018-02-13T01:28:37.755Z,20.33
2018-02-13T01:29:43.128Z,16.08
2018-02-13T01:30:47.347Z,18.85
2018-02-13T01:31:51.554Z,17.08
2018-02-13T01:32:55.730Z,21.95
2018-02-13T01:34:00.772Z,18.20
2018-02-13T01:35:06.852Z,15.30
2018-02-13T01:36:11.187Z,22.92
2018-02-13T01:37:15.399Z,18.70
2018-02-13T01:38:19.576Z,17.87
2018-02-13T01:39:23.779Z,19.52
2018-02-13T01:40:28.003Z,18.73
2018-02-13T01:41:32.298Z,16.10
2018-02-13T01:42:37.020Z,20.10
2018-02-13T01:43:42.051Z,22.92
2018-02-13T01:44:46.280Z,25.27
2018-02-13T01:45:50.492Z,17.65
2018-02-13T01:46:54.752Z,23.67
2018-02-13T01:47:59.742Z,20.17
2018-02-13T01:49:04.250Z,23.65
2018-02-13T01:50:29.919Z,18.92
2018-02-13T01:51:34.357Z,17.17
2018-02-13T01:52:38.717Z,31.17
2018-02-13T01:53:42.973Z,22.10
2018-02-13T01:54:47.929Z,33.03
2018-02-13T01:55:52.168Z,18.77
2018-02-13T01:56:56.394Z,21.23
2018-02-13T01:58:00.685Z,16.05
2018-02-13T01:59:05.473Z,23.12
2018-02-13T02:00:09.803Z,26.23
2018-02-13T02:01:14.133Z,15.02
2018-02-13T02:02:21.114Z,20.80
2018-02-13T02:03:25.316Z,23.95
2018-02-13T02:04:29.588Z,15.90
2018-02-13T02:05:34.028Z,17.42
2018-02-13T02:06:38.327Z,21.08
2018-02-13T02:07:42.699Z,21.98
2018-02-13T02:08:46.943Z,26.97
2018-02-13T02:09:51.895Z,20.55
2018-02-13T02:10:56.099Z,19.77
2018-02-13T02:12:00.299Z,20.60
2018-02-13T02:13:07.327Z,20.27
2018-02-13T02:14:12.119Z,21.10
2018-02-13T02:15:16.320Z,25.90
2018-02-13T02:16:21.287Z,21.83
2018-02-13T02:17:25.472Z,28.23
2018-02-13T02:18:29.675Z,21.05
2018-02-13T02:19:34.683Z,23.75
2018-02-13T02:20:40.371Z,23.90
2018-02-13T02:21:44.612Z,18.23
2018-02-13T02:22:48.786Z,20.10
2018-02-13T02:23:53.003Z,19.95
2018-02-13T02:24:57.261Z,32.15
2018-02-13T02:26:01.863Z,23.08
2018-02-13T02:27:06.678Z,14.02
2018-02-13T02:28:11.247Z,16.62
2018-02-13T02:29:15.483Z,21.62
2018-02-13T02:30:20.006Z,22.33
2018-02-13T02:31:24.192Z,28.10
2018-02-13T02:32:29.158Z,18.58
2018-02-13T02:33:33.644Z,24.67
2018-02-13T02:34:38.067Z,16.23
2018-02-13T02:35:42.599Z,19.65
2018-02-13T02:36:46.930Z,22.83
2018-02-13T02:37:51.168Z,22.20
2018-02-13T02:38:55.376Z,24.65
2018-02-13T02:39:59.575Z,14.75
2018-02-13T02:41:04.339Z,18.30
2018-02-13T02:42:08.704Z,21.33
2018-02-13T02:43:13.075Z,16.08
2018-02-13T02:44:17.304Z,25.30
2018-02-13T02:45:21.508Z,18.90
2018-02-13T02:46:25.714Z,23.42
2018-02-13T02:47:29.940Z,26.58
2018-02-13T02:48:37.509Z,23.23
2018-02-13T02:49:42.029Z,20.92
2018-02-13T02:50:47.885Z,23.42
2018-02-13T02:51:52.080Z,23.98
2018-02-13T02:52:56.295Z,21.15
2018-02-13T02:54:00.570Z,16.12
2018-02-13T02:55:07.385Z,23.00
2018-02-13T02:56:12.319Z,24.08
2018-02-13T02:57:16.558Z,28.40
2018-02-13T02:58:21.418Z,25.42
2018-02-13T02:59:25.656Z,21.87
2018-02-13T03:00:29.878Z,23.40
2018-02-13T03:01:34.413Z,26.45
2018-02-13T03:02:39.004Z,22.30
2018-02-13T03:03:44.219Z,21.85
2018-02-13T03:04:49.293Z,17.90
2018-02-13T03:05:54.015Z,16.92
2018-02-13T03:06:58.224Z,19.98
2018-02-13T03:08:02.739Z,16.98
2018-02-13T03:09:07.581Z,19.58
2018-02-13T03:10:13.040Z,24.45
2018-02-13T03:11:17.301Z,30.62
2018-02-13T03:12:21.479Z,32.67
2018-02-13T03:13:25.687Z,24.35
2018-02-13T03:14:29.914Z,20.10
2018-02-13T03:15:35.942Z,18.90
2018-02-13T03:16:41.535Z,20.35
2018-02-13T03:17:45.858Z,19.65
2018-02-13T03:18:50.162Z,22.23
2018-02-13T03:19:54.393Z,26.58
2018-02-13T03:20:58.598Z,18.87
2018-02-13T03:22:04.264Z,24.90
2018-02-13T03:23:09.815Z,24.27
2018-02-13T03:24:14.762Z,20.60
2018-02-13T03:25:19.719Z,22.17
2018-02-13T03:26:23.900Z,23.55
2018-02-13T03:27:28.079Z,19.92
2018-02-13T03:28:34.368Z,18.92
2018-02-13T03:29:41.460Z,25.30
2018-02-13T03:30:45.716Z,18.17
2018-02-13T03:31:49.932Z,20.23
2018-02-13T03:32:54.123Z,21.00
2018-02-13T03:33:58.664Z,20.98
2018-02-13T03:35:04.124Z,19.92
2018-02-13T03:36:09.252Z,21.83
2018-02-13T03:37:13.807Z,22.05
2018-02-13T03:38:18.273Z,20.35
2018-02-13T03:39:22.501Z,29.23
2018-02-13T03:40:26.743Z,16.95
2018-02-13T03:41:31.203Z,17.45
2018-02-13T03:42:37.276Z,24.58
2018-02-13T03:43:42.406Z,16.45
2018-02-13T03:44:46.642Z,22.67
2018-02-13T03:45:50.927Z,18.90
2018-02-13T03:46:55.118Z,24.30
2018-02-13T03:47:59.299Z,20.65
2018-02-13T03:49:04.998Z,21.92
2018-02-13T03:50:10.404Z,19.92
2018-02-13T03:51:15.752Z,28.00
2018-02-13T03:52:19.973Z,21.73
2018-02-13T03:53:24.253Z,22.70
2018-02-13T03:54:28.479Z,22.52
2018-02-13T03:55:34.396Z,30.92
2018-02-13T03:56:38.882Z,17.95
2018-02-13T03:57:43.220Z,24.85
2018-02-13T03:58:47.475Z,15.88
2018-02-13T03:59:51.686Z,27.67
2018-02-13T04:00:55.880Z,27.40
2018-02-13T04:02:00.099Z,21.65
2018-02-13T04:03:04.714Z,21.75
2018-02-13T04:04:09.112Z,23.48
2018-02-13T04:05:13.581Z,16.80
2018-02-13T04:06:18.088Z,26.62
2018-02-13T04:07:22.276Z,18.50
2018-02-13T04:08:26.474Z,21.37
2018-02-13T04:09:30.764Z,17.90
2018-02-13T04:10:35.825Z,25.23
2018-02-13T04:11:41.231Z,16.87
2018-02-13T04:12:46.418Z,17.50
2018-02-13T04:13:50.635Z,31.23
2018-02-13T04:14:54.819Z,22.70
2018-02-13T04:15:59.014Z,21.20
2018-02-13T04:17:03.687Z,27.65
2018-02-13T04:18:09.090Z,16.52
2018-02-13T04:19:13.872Z,21.62
2018-02-13T04:20:18.911Z,16.37
2018-02-13T04:21:23.200Z,17.55
2018-02-13T04:22:27.460Z,20.37
2018-02-13T04:23:32.915Z,17.80
2018-02-13T04:24:38.049Z,14.60
2018-02-13T04:25:42.383Z,20.90
2018-02-13T04:26:46.585Z,18.37
2018-02-13T04:27:50.870Z,20.37
2018-02-13T04:28:55.065Z,15.30
2018-02-13T04:30:00.026Z,21.37
2018-02-13T04:31:04.653Z,25.12
2018-02-13T04:32:09.967Z,19.23
2018-02-13T04:33:14.616Z,20.58
2018-02-13T04:34:18.795Z,18.60
2018-02-13T04:35:23.767Z,17.25
2018-02-13T04:36:27.942Z,29.92
2018-02-13T04:37:33.023Z,25.65
2018-02-13T04:38:37.999Z,18.90
2018-02-13T04:39:42.416Z,19.75
2018-02-13T04:40:46.786Z,15.45
2018-02-13T04:41:51.756Z,19.48
2018-02-13T04:42:55.959Z,20.00
2018-02-13T04:44:00.238Z,17.50
2018-02-13T04:45:05.825Z,20.83
2018-02-13T04:46:10.209Z,24.05
2018-02-13T04:47:15.438Z,21.60
2018-02-13T04:48:19.661Z,18.35
2018-02-13T04:49:24.645Z,21.85
2018-02-13T04:50:28.838Z,20.40
2018-02-13T04:51:33.936Z,19.05
2018-02-13T04:52:39.000Z,19.33
2018-02-13T04:53:43.245Z,18.55
2018-02-13T04:54:47.486Z,24.37
2018-02-13T04:55:53.259Z,27.08
2018-02-13T04:56:57.488Z,17.52
2018-02-13T04:58:01.994Z,15.57
2018-02-13T04:59:06.274Z,17.90
2018-02-13T05:00:11.294Z,24.52
2018-02-13T05:01:15.477Z,19.12
2018-02-13T05:02:19.707Z,28.27
2018-02-13T05:03:23.924Z,26.17
2018-02-13T05:04:28.139Z,16.62
2018-02-13T05:05:33.015Z,26.75
2018-02-13T05:06:38.303Z,15.60
2018-02-13T05:07:42.557Z,18.08
2018-02-13T05:08:46.794Z,19.55
2018-02-13T05:09:51.487Z,19.62
2018-02-13T05:10:55.714Z,17.50
2018-02-13T05:11:59.911Z,24.40
2018-02-13T05:13:04.394Z,30.00
2018-02-13T05:14:09.401Z,18.67
2018-02-13T05:15:14.510Z,16.75
2018-02-13T05:16:18.683Z,21.92
2018-02-13T05:17:22.957Z,22.10
2018-02-13T05:18:27.247Z,23.35
2018-02-13T05:19:32.136Z,21.83
2018-02-13T05:20:39.360Z,18.55
2018-02-13T05:21:44.248Z,22.00
2018-02-13T05:22:48.466Z,31.20
2018-02-13T05:23:52.850Z,20.48
2018-02-13T05:24:57.833Z,18.12
2018-02-13T05:26:02.746Z,16.33
2018-02-13T05:27:08.134Z,16.75
2018-02-13T05:28:14.225Z,22.45
2018-02-13T05:29:18.467Z,19.58
2018-02-13T05:30:22.688Z,20.30
2018-02-13T05:31:26.945Z,13.20
2018-02-13T05:32:32.015Z,19.15
2018-02-13T05:33:38.362Z,19.98
2018-02-13T05:34:44.175Z,23.95
2018-02-13T05:35:49.150Z,25.20
2018-02-13T05:36:53.378Z,14.95
2018-02-13T05:37:57.592Z,20.77
2018-02-13T05:39:01.997Z,19.33
2018-02-13T05:40:07.799Z,20.15
2018-02-13T05:41:12.339Z,12.95
2018-02-13T05:42:16.996Z,23.75
2018-02-13T05:43:21.212Z,19.77
2018-02-13T05:44:25.409Z,18.77
2018-02-13T05:45:29.640Z,28.60
2018-02-13T05:46:35.076Z,20.05
2018-02-13T05:47:39.959Z,19.83
2018-02-13T05:48:44.558Z,19.50
2018-02-13T05:49:48.734Z,20.55
2018-02-13T05:50:52.907Z,18.15
2018-02-13T05:51:57.125Z,15.02
2018-02-13T05:53:01.498Z,15.68
2018-02-13T05:54:05.924Z,19.12
2018-02-13T05:55:10.224Z,17.17
2018-02-13T05:56:15.175Z,29.12
2018-02-13T05:57:19.364Z,16.92
2018-02-13T05:58:24.398Z,17.55
2018-02-13T05:59:28.719Z,25.88
2018-02-13T06:00:33.482Z,14.77
2018-02-13T06:01:37.711Z,19.90
2018-02-13T06:02:43.433Z,19.37
2018-02-13T06:03:47.703Z,18.12
2018-02-13T06:04:52.652Z,18.67
2018-02-13T06:05:56.868Z,15.70
2018-02-13T06:07:01.155Z,23.42
2018-02-13T06:08:05.491Z,21.25
2018-02-13T06:09:09.792Z,19.42
2018-02-13T06:10:14.141Z,26.10
2018-02-13T06:11:18.322Z,18.87
2018-02-13T06:12:22.495Z,18.27
2018-02-13T06:13:27.528Z,17.12
2018-02-13T06:14:31.707Z,24.17
2018-02-13T06:15:36.050Z,23.25
2018-02-13T06:16:41.085Z,25.80
2018-02-13T06:17:45.318Z,16.87
2018-02-13T06:18:49.552Z,17.37
2018-02-13T06:19:53.772Z,18.45
2018-02-13T06:20:57.972Z,21.62
2018-02-13T06:22:02.402Z,24.90
2018-02-13T06:23:06.855Z,22.05
2018-02-13T06:24:11.497Z,17.92
2018-02-13T06:25:15.747Z,17.48
2018-02-13T06:26:19.983Z,23.48
2018-02-13T06:27:24.320Z,21.02
2018-02-13T06:28:29.271Z,20.58
2018-02-13T06:29:33.954Z,19.05
2018-02-13T06:30:39.203Z,17.20
2018-02-13T06:31:44.278Z,18.50
2018-02-13T06:32:48.464Z,20.37
2018-02-13T06:33:53.772Z,21.35
2018-02-13T06:34:58.806Z,17.75
2018-02-13T06:36:03.597Z,20.42
2018-02-13T06:37:08.783Z,15.75
2018-02-13T06:38:13.078Z,19.58
2018-02-13T06:39:17.279Z,20.17
2018-02-13T06:40:21.555Z,25.95
2018-02-13T06:41:25.749Z,25.45
2018-02-13T06:42:29.961Z,21.83
2018-02-13T06:43:35.582Z,28.00
2018-02-13T06:44:39.888Z,19.98
2018-02-13T06:45:44.197Z,21.98
2018-02-13T06:46:49.177Z,29.50
2018-02-13T06:47:53.359Z,20.05
2018-02-13T06:48:57.553Z,16.70
2018-02-13T06:50:03.464Z,21.92
2018-02-13T06:51:08.518Z,16.23
2018-02-13T06:52:12.952Z,18.30
2018-02-13T06:53:17.219Z,30.58
2018-02-13T06:54:21.407Z,28.52
2018-02-13T06:55:25.624Z,25.65
2018-02-13T06:56:29.868Z,26.10
2018-02-13T06:57:36.814Z,22.25
2018-02-13T06:58:41.077Z,22.70
2018-02-13T06:59:45.427Z,20.33
2018-02-13T07:00:49.648Z,24.10
2018-02-13T07:01:53.879Z,25.00
2018-02-13T07:02:58.220Z,18.48
2018-02-13T07:04:03.482Z,23.92
2018-02-13T07:05:09.305Z,15.90
2018-02-13T07:06:13.800Z,24.23
2018-02-13T07:07:18.828Z,23.20
2018-02-13T07:08:23.014Z,18.30
2018-02-13T07:09:27.219Z,17.35
2018-02-13T07:10:31.830Z,20.40
2018-02-13T07:11:37.453Z,21.35
2018-02-13T07:12:41.968Z,21.73
2018-02-13T07:13:46.176Z,24.15
2018-02-13T07:14:51.181Z,17.73
2018-02-13T07:15:56.186Z,22.75
2018-02-13T07:17:00.530Z,22.90
2018-02-13T07:18:06.363Z,21.15
2018-02-13T07:19:12.076Z,20.55
2018-02-13T07:20:16.838Z,23.70
2018-02-13T07:21:21.018Z,22.80
2018-02-13T07:22:25.255Z,20.85
2018-02-13T07:23:29.520Z,24.08
2018-02-13T07:24:34.990Z,22.58
2018-02-13T07:25:40.195Z,25.20
2018-02-13T07:26:44.876Z,24.35
2018-02-13T07:27:49.879Z,20.45
2018-02-13T07:28:54.165Z,23.45
2018-02-13T07:29:58.352Z,30.90
2018-02-13T07:31:03.104Z,19.70
2018-02-13T07:32:09.178Z,17.92
2018-02-13T07:33:13.740Z,25.50
2018-02-13T07:34:17.997Z,24.23
2018-02-13T07:35:22.253Z,21.27
2018-02-13T07:36:26.466Z,22.67
2018-02-13T07:37:31.575Z,19.25
2018-02-13T07:38:37.275Z,20.48
2018-02-13T07:39:41.786Z,20.25
2018-02-13T07:40:46.131Z,19.05
2018-02-13T07:41:50.488Z,22.48
2018-02-13T07:42:55.476Z,22.15
2018-02-13T07:43:59.693Z,22.50
2018-02-13T07:45:06.164Z,18.12
2018-02-13T07:46:11.265Z,15.38
2018-02-13T07:47:17.160Z,18.33
2018-02-13T07:48:21.348Z,18.77
2018-02-13T07:49:25.583Z,21.80
2018-02-13T07:50:29.828Z,17.75
2018-02-13T07:51:35.883Z,24.58
2018-02-13T07:52:40.886Z,25.37
2018-02-13T07:53:45.165Z,20.12
2018-02-13T07:54:49.392Z,31.70
2018-02-13T07:55:53.595Z,21.27
2018-02-13T07:56:57.766Z,19.42
2018-02-13T07:58:02.552Z,22.62
2018-02-13T07:59:08.588Z,20.65
2018-02-13T08:00:13.473Z,13.02
2018-02-13T08:01:17.703Z,19.52
2018-02-13T08:02:21.887Z,21.58
2018-02-13T08:03:26.085Z,18.30
2018-02-13T08:04:30.436Z,19.23
2018-02-13T08:05:36.360Z,20.02
2018-02-13T08:06:40.678Z,16.60
2018-02-13T08:07:45.068Z,13.50
2018-02-13T08:08:50.024Z,15.70
2018-02-13T08:09:54.194Z,17.20
2018-02-13T08:10:58.410Z,17.30
2018-02-13T08:12:04.733Z,15.80
2018-02-13T08:13:09.105Z,23.48
2018-02-13T08:14:14.239Z,16.50
2018-02-13T08:15:18.889Z,12.63
2018-02-13T08:16:23.077Z,15.73
2018-02-13T08:17:27.280Z,20.70
2018-02-13T08:18:31.864Z,18.92
2018-02-13T08:19:36.597Z,14.48
2018-02-13T08:20:42.208Z,13.52
2018-02-13T08:21:46.932Z,19.45
2018-02-13T08:22:51.130Z,17.55
2018-02-13T08:23:55.299Z,24.70
2018-02-13T08:25:00.267Z,10.27
2018-02-13T08:26:05.698Z,14.50
2018-02-13T08:27:11.950Z,11.40
2018-02-13T08:28:16.252Z,18.62
2018-02-13T08:29:20.460Z,12.20
2018-02-13T08:30:24.632Z,19.95
2018-02-13T08:31:28.874Z,12.15
2018-02-13T08:32:35.486Z,13.90
2018-02-13T08:33:39.918Z,16.35
2018-02-13T08:34:44.349Z,12.60
2018-02-13T08:35:48.552Z,14.73
2018-02-13T08:36:52.732Z,11.82
2018-02-13T08:37:56.947Z,16.83
2018-02-13T08:39:01.664Z,10.00
2018-02-13T08:40:08.120Z,13.95
2018-02-13T08:41:12.432Z,14.40
2018-02-13T08:42:17.394Z,16.77
2018-02-13T08:43:21.616Z,10.35
2018-02-13T08:44:25.848Z,10.60
2018-02-13T08:45:31.141Z,16.23
2018-02-13T08:46:38.156Z,18.15
2018-02-13T08:47:43.441Z,13.93
2018-02-13T08:48:47.712Z,15.23
2018-02-13T08:49:51.926Z,17.80
2018-02-13T08:50:56.119Z,16.75
2018-02-13T08:52:01.763Z,13.93
2018-02-13T08:53:07.563Z,10.75
2018-02-13T08:54:11.849Z,14.00
2018-02-13T08:55:16.099Z,15.82
2018-02-13T08:56:20.305Z,13.77
2018-02-13T08:57:24.570Z,19.12
2018-02-13T08:58:28.812Z,13.70
2018-02-13T08:59:35.255Z,19.10
2018-02-13T09:00:40.597Z,9.25
2018-02-13T09:01:45.135Z,15.48
2018-02-13T09:02:49.418Z,16.75
2018-02-13T09:03:53.647Z,13.98
2018-02-13T09:04:57.871Z,15.68
2018-02-13T09:06:02.401Z,8.23
2018-02-13T09:07:07.769Z,7.70
2018-02-13T09:08:12.157Z,9.98
2018-02-13T09:09:17.329Z,13.27
2018-02-13T09:10:22.308Z,10.88
2018-02-13T09:11:26.478Z,9.52
2018-02-13T09:12:33.731Z,19.05
2018-02-13T09:13:38.354Z,9.18
2018-02-13T09:14:43.549Z,9.40
2018-02-13T09:15:47.839Z,16.37
2018-02-13T09:16:52.011Z,14.60
2018-02-13T09:17:56.189Z,14.87
2018-02-13T09:19:00.431Z,17.60
2018-02-13T09:20:05.656Z,15.38
2018-02-13T09:21:10.136Z,10.68
2018-02-13T09:22:14.680Z,10.65
2018-02-13T09:23:18.854Z,7.62
2018-02-13T09:24:23.062Z,8.88
2018-02-13T09:25:27.273Z,10.73
2018-02-13T09:26:32.207Z,9.73
2018-02-13T09:27:38.327Z,11.32
2018-02-13T09:28:43.799Z,14.25
2018-02-13T09:29:48.041Z,17.93
2018-02-13T09:30:52.253Z,12.57
2018-02-13T09:31:57.164Z,13.00
2018-02-13T09:33:02.785Z,12.35
2018-02-13T09:34:07.373Z,9.45
2018-02-13T09:35:13.179Z,13.07
2018-02-13T09:36:17.396Z,7.05
2018-02-13T09:37:22.109Z,10.07
2018-02-13T09:38:26.321Z,11.90
2018-02-13T09:39:30.537Z,12.13
2018-02-13T09:40:36.371Z,14.93
2018-02-13T09:41:40.884Z,16.58
2018-02-13T09:42:45.967Z,14.68
2018-02-13T09:43:50.963Z,11.32
2018-02-13T09:44:55.215Z,15.82
2018-02-13T09:45:59.404Z,8.93
2018-02-13T09:47:04.995Z,13.03
2018-02-13T09:48:09.337Z,8.73
2018-02-13T09:49:14.414Z,13.25
2018-02-13T09:50:19.373Z,7.25
2018-02-13T09:51:23.568Z,7.85
2018-02-13T09:52:28.567Z,12.18
2018-02-13T09:53:36.906Z,10.20
2018-02-13T09:54:42.580Z,13.00
2018-02-13T09:55:47.879Z,8.40
2018-02-13T09:56:52.830Z,13.23
2018-02-13T09:57:57.440Z,17.00
2018-02-13T09:59:02.297Z,12.57
2018-02-13T10:00:09.541Z,10.00
2018-02-13T10:01:13.957Z,13.32
2018-02-13T10:02:18.167Z,12.88
2018-02-13T10:03:23.188Z,11.38
2018-02-13T10:04:28.159Z,9.47
2018-02-13T10:05:35.694Z,11.93
2018-02-13T10:06:41.277Z,10.90
2018-02-13T10:07:45.483Z,13.23
2018-02-13T10:08:49.691Z,6.90
2018-02-13T10:09:53.876Z,9.63
2018-02-13T10:10:58.087Z,12.93
2018-02-13T10:12:04.540Z,16.45
2018-02-13T10:13:09.760Z,13.68
2018-02-13T10:14:14.742Z,11.20
2018-02-13T10:15:18.958Z,8.85
2018-02-13T10:16:23.164Z,16.37
2018-02-13T10:17:27.399Z,12.23
2018-02-13T10:18:32.679Z,9.60
2018-02-13T10:19:39.483Z,13.15
2018-02-13T10:20:44.610Z,7.43
2018-02-13T10:21:48.814Z,12.05
2018-02-13T10:22:52.998Z,8.13
2018-02-13T10:23:57.188Z,14.83
2018-02-13T10:25:02.003Z,13.00
2018-02-13T10:26:06.999Z,11.90
2018-02-13T10:27:12.066Z,12.50
2018-02-13T10:28:16.716Z,17.83
2018-02-13T10:29:20.918Z,10.17
2018-02-13T10:30:25.164Z,9.93
2018-02-13T10:31:30.142Z,7.20
2018-02-13T10:32:38.329Z,9.60
2018-02-13T10:33:43.076Z,21.50
2018-02-13T10:34:48.042Z,14.20
2018-02-13T10:35:53.008Z,10.40
2018-02-13T10:36:57.211Z,6.82
2018-02-13T10:38:02.430Z,7.07
2018-02-13T10:39:07.753Z,7.97
2018-02-13T10:40:12.943Z,11.67
2018-02-13T10:41:17.175Z,12.00
2018-02-13T10:42:21.406Z,11.50
2018-02-13T10:43:25.599Z,14.75
2018-02-13T10:44:29.820Z,9.60
2018-02-13T10:45:35.442Z,8.57
2018-02-13T10:46:40.217Z,6.53
2018-02-13T10:47:44.535Z,9.40
2018-02-13T10:48:48.713Z,8.30
2018-02-13T10:49:53.691Z,7.50
2018-02-13T10:50:57.856Z,6.13
2018-02-13T10:52:03.997Z,12.80
2018-02-13T10:53:08.705Z,6.93
2018-02-13T10:54:13.634Z,8.93
2018-02-13T10:55:18.638Z,10.50
2018-02-13T10:56:22.830Z,8.02
2018-02-13T10:57:26.999Z,9.37
2018-02-13T10:58:33.273Z,11.55
2018-02-13T10:59:39.119Z,7.70
2018-02-13T11:00:49.102Z,11.33
2018-02-13T11:03:33.236Z,9.03
2018-02-13T11:04:39.587Z,12.70
2018-02-13T11:05:44.520Z,15.20
2018-02-13T11:06:49.466Z,8.00
2018-02-13T11:07:53.638Z,10.40
2018-02-13T11:08:57.920Z,16.90
2018-02-13T11:10:02.842Z,13.50
2018-02-13T11:11:09.176Z,8.87
2018-02-13T11:12:14.302Z,8.63
2018-02-13T11:13:18.475Z,12.95
2018-02-13T11:14:22.655Z,8.13
2018-02-13T11:15:26.904Z,10.23
2018-02-13T11:16:33.426Z,16.37
2018-02-13T11:17:39.084Z,7.77
2018-02-13T11:18:43.664Z,11.27
2018-02-13T11:19:47.897Z,11.80
2018-02-13T11:20:52.506Z,5.57
2018-02-13T11:21:56.707Z,12.23
2018-02-13T11:23:00.973Z,18.63
2018-02-13T11:24:05.641Z,13.43
2018-02-13T11:25:10.571Z,8.20
2018-02-13T11:26:15.063Z,4.30
2018-02-13T11:27:20.411Z,9.47
2018-02-13T11:28:25.339Z,9.50
2018-02-13T11:29:30.291Z,7.83
2018-02-13T11:30:37.266Z,7.80
2018-02-13T11:31:41.747Z,11.07
2018-02-13T11:32:46.345Z,10.13
2018-02-13T11:33:50.527Z,8.07
2018-02-13T11:34:54.720Z,14.27
2018-02-13T11:35:58.903Z,14.87
2018-02-13T11:37:06.404Z,10.77
2018-02-13T11:38:11.306Z,9.53
2018-02-13T11:39:16.049Z,8.87
2018-02-13T11:40:20.991Z,7.30
2018-02-13T11:41:25.180Z,10.80
2018-02-13T11:42:30.158Z,7.90
2018-02-13T11:43:37.196Z,7.13
2018-02-13T11:44:41.607Z,13.57
2018-02-13T11:45:46.229Z,10.83
2018-02-13T11:46:51.183Z,11.17
2018-02-13T11:47:55.417Z,9.93
2018-02-13T11:48:59.607Z,10.83
2018-02-13T11:50:05.663Z,6.80
2018-02-13T11:51:10.168Z,14.60
2018-02-13T11:52:15.371Z,10.90
2018-02-13T11:53:19.560Z,18.20
2018-02-13T11:54:23.750Z,19.10
2018-02-13T11:55:27.912Z,12.87
2018-02-13T11:56:33.793Z,8.23
2018-02-13T11:57:39.110Z,13.80
2018-02-13T11:58:43.539Z,11.07
2018-02-13T11:59:48.186Z,6.57
2018-02-13T12:00:52.364Z,8.80
2018-02-13T12:01:56.549Z,11.20
2018-02-13T12:03:01.600Z,6.77
2018-02-13T12:04:06.921Z,10.70
2018-02-13T12:05:12.450Z,9.03
2018-02-13T12:06:16.826Z,11.73
2018-02-13T12:07:21.518Z,7.93
2018-02-13T12:08:25.696Z,10.50
2018-02-13T12:09:30.659Z,7.47
2018-02-13T12:10:38.024Z,9.20
2018-02-13T12:11:42.860Z,13.40
2018-02-13T12:12:47.190Z,13.27
2018-02-13T12:13:52.259Z,8.20
2018-02-13T12:14:56.451Z,10.83
2018-02-13T12:16:00.705Z,11.10
2018-02-13T12:17:06.008Z,8.20
2018-02-13T12:18:10.455Z,8.93
2018-02-13T12:19:15.612Z,6.73
2018-02-13T12:20:19.861Z,6.10
2018-02-13T12:21:24.050Z,14.33
2018-02-13T12:22:28.317Z,9.53
2018-02-13T12:23:34.105Z,15.53
2018-02-13T12:24:39.942Z,5.43
2018-02-13T12:25:45.156Z,7.40
2018-02-13T12:26:50.160Z,5.83
2018-02-13T12:27:54.363Z,9.83
2018-02-13T12:28:58.571Z,12.10
2018-02-13T12:30:04.473Z,12.03
2018-02-13T12:31:09.433Z,11.90
2018-02-13T12:32:15.124Z,6.73
2018-02-13T12:33:19.292Z,9.50
2018-02-13T12:34:23.459Z,8.23
2018-02-13T12:35:28.427Z,13.23
2018-02-13T12:36:33.736Z,9.63
2018-02-13T12:37:38.678Z,8.63
2018-02-13T12:38:43.066Z,6.50
2018-02-13T12:39:47.268Z,9.07
2018-02-13T12:40:52.208Z,4.93
2018-02-13T12:41:57.143Z,5.77
2018-02-13T12:43:03.531Z,11.20
2018-02-13T12:44:09.267Z,11.20
2018-02-13T12:45:13.760Z,13.13
2018-02-13T12:46:17.980Z,10.90
2018-02-13T12:47:22.161Z,15.00
2018-02-13T12:48:26.392Z,11.70
2018-02-13T12:49:32.212Z,9.57
2018-02-13T12:50:36.932Z,10.80
2018-02-13T12:51:43.515Z,8.40
2018-02-13T12:52:48.478Z,12.17
2018-02-13T12:53:53.210Z,11.00
2018-02-13T12:54:57.382Z,8.30
2018-02-13T12:56:04.121Z,9.63
2018-02-13T12:57:09.120Z,12.90
2018-02-13T12:58:14.328Z,8.23
2018-02-13T12:59:18.548Z,10.10
2018-02-13T13:00:22.735Z,9.33
2018-02-13T13:01:27.724Z,7.57
2018-02-13T13:02:32.416Z,7.40
2018-02-13T13:03:38.506Z,9.87
2018-02-13T13:04:43.364Z,15.60
2018-02-13T13:05:47.649Z,11.03
2018-02-13T13:06:51.840Z,9.23
2018-02-13T13:07:56.016Z,13.50
2018-02-13T13:09:00.175Z,15.20
2018-02-13T13:10:05.925Z,15.03
2018-02-13T13:11:10.339Z,10.40
2018-02-13T13:12:14.973Z,8.93
2018-02-13T13:13:19.182Z,9.80
2018-02-13T13:14:23.380Z,6.47
2018-02-13T13:15:27.579Z,14.03
2018-02-13T13:16:31.915Z,11.93
2018-02-13T13:17:37.190Z,14.43
2018-02-13T13:18:42.865Z,10.20
2018-02-13T13:19:47.129Z,12.20
2018-02-13T13:20:52.907Z,10.70
2018-02-13T13:21:57.135Z,14.47
2018-02-13T13:23:02.336Z,8.50
2018-02-13T13:24:06.842Z,13.13
2018-02-13T13:25:11.163Z,8.77
2018-02-13T13:26:15.590Z,13.43
2018-02-13T13:27:19.779Z,9.17
2018-02-13T13:28:24.751Z,11.10
2018-02-13T13:29:28.920Z,12.37
2018-02-13T13:30:34.460Z,8.47
2018-02-13T13:31:39.151Z,10.80
2018-02-13T13:32:43.841Z,18.10
2018-02-13T13:33:48.240Z,10.10
2018-02-13T13:34:52.422Z,10.23
2018-02-13T13:35:56.690Z,10.80
2018-02-13T13:37:00.891Z,9.07
2018-02-13T13:38:07.549Z,10.97
2018-02-13T13:39:13.361Z,7.97
2018-02-13T13:40:17.632Z,8.73
2018-02-13T13:41:22.631Z,9.30
2018-02-13T13:42:26.843Z,14.00
2018-02-13T13:43:31.881Z,7.67
2018-02-13T13:44:38.912Z,5.77
2018-02-13T13:45:43.273Z,13.57
2018-02-13T13:46:47.463Z,14.17
2018-02-13T13:47:52.391Z,10.90
2018-02-13T13:48:56.599Z,8.80
2018-02-13T13:50:00.918Z,10.93
2018-02-13T13:51:06.947Z,12.63
2018-02-13T13:52:11.431Z,10.13
2018-02-13T13:53:15.661Z,7.03
2018-02-13T13:54:19.855Z,12.30
2018-02-13T13:55:24.042Z,14.03
2018-02-13T13:56:28.223Z,9.17
2018-02-13T13:57:33.582Z,18.03
2018-02-13T13:58:39.395Z,9.33
2018-02-13T13:59:44.531Z,7.17
2018-02-13T14:00:49.490Z,12.97
2018-02-13T14:01:53.726Z,13.37